Pagrindinis puslapis
METAR-TAF:

METAR-TAF

Oro uostai :

Stavangeris, Norvegija

platuma: 58-53N, ilguma: 005-38E, Aukštis: 0 m

Dabartinis oras

Ataskaita buvo paskelbta 34 minutes, ne 23:50 UTC
Vėjas 8 kt iš Pietų
Temperatūra 13°C
Drėgmė 94%
Slėgis 1012 hPa
Matomumas 10 km arba daugiau
Mažai debesys ne aukštis 1500 ft
Išsisklaidę debesys ne aukštis 3800 ft

METAR: ENZV 022350Z 17008KT 9999 FEW015 SCT038 13/12 Q1012

Laikas: 02:24 (00:24 UTC)

Prognozė

Prognozė galioja nuo 03 metu 00 UTC su 03 metu 24 UTC
Vėjas 12 kt iš Pietų
Matomumas 10 km arba daugiau
Išsisklaidę debesys ne aukštis 2500 ft
Su prošvaistėmis ne aukštis 5000 ft
Tikimybė 40% :
Laikinai
nuo 03 metu 00 UTC su 03 metu 14 UTC
Matomumas: 4000 m
Su prošvaistėmis ne aukštis 1200 ft, Liūtiniai kamuoliniai debesys.
lietus
Tapsmas
nuo 03 metu 11 UTC su 03 metu 13 UTC
Vėjas 8 kt iš Vakarų/Pietvakarių

TAF: ENZV 0300/0324 18012KT 9999 SCT025 BKN050 PROB40 TEMPO 0300/0314 4000 SHRA BKN012CB BECMG 0311/0313 25008KT

Orai ataskaitas ir orų prognozės (METAR, TAF).

turimą stotys yra geltonos ir raudonos taškus žemėlapyje.

Perkelti pele per norėdami pamatyti stoties vardą.

Tada spustelėkite, norėdami matyti oro stebėjimo ir prognozės.

Norėdami pakeisti žemėlapį: spustelėkite ant žalios mygtukų su juodo kryžiaus žemyn,; žalią mygtuką su brūkšneliu, jei norite nutolinti; arba žalių rodyklių gretimoms žemėlapius.


METAR-TAF: